createdAt,value
2019-02-05T00:02:07.110Z,-0.80
2019-02-05T00:05:08.029Z,-0.80
2019-02-05T00:07:56.726Z,-0.90
2019-02-05T00:13:58.756Z,-0.90
2019-02-05T00:17:06.697Z,-0.90
2019-02-05T00:20:07.121Z,-1.00
2019-02-05T00:23:08.437Z,-1.00
2019-02-05T00:26:09.146Z,-1.10
2019-02-05T00:29:10.177Z,-1.10
2019-02-05T00:31:58.914Z,-1.20
2019-02-05T00:35:07.046Z,-1.30
2019-02-05T00:38:08.105Z,-1.40
2019-02-05T00:41:08.724Z,-1.30
2019-02-05T00:44:09.352Z,-1.30
2019-02-05T00:47:09.746Z,-1.20
2019-02-05T00:50:10.321Z,-1.20
2019-02-05T00:53:10.594Z,-1.20
2019-02-05T00:56:17.677Z,-1.30
2019-02-05T00:59:14.372Z,-1.20
2019-02-05T01:02:03.097Z,-1.10
2019-02-05T01:05:11.121Z,-1.10
2019-02-05T01:08:19.194Z,-1.10
2019-02-05T01:11:19.610Z,-1.10
2019-02-05T01:14:20.086Z,-1.10
2019-02-05T01:17:20.347Z,-1.30
2019-02-05T01:20:21.077Z,-1.40
2019-02-05T01:23:21.361Z,-1.20
2019-02-05T01:26:28.934Z,-1.20
2019-02-05T01:29:24.286Z,-1.30
2019-02-05T01:32:24.824Z,-1.10
2019-02-05T01:35:25.694Z,-1.20
2019-02-05T01:38:26.960Z,-1.20
2019-02-05T01:41:27.498Z,-1.10
2019-02-05T01:44:28.789Z,-1.10
2019-02-05T01:47:29.438Z,-1.10
2019-02-05T01:50:29.958Z,-1.20
2019-02-05T01:53:30.695Z,-1.40
2019-02-05T01:56:40.486Z,-1.50
2019-02-05T01:59:33.345Z,-1.60
2019-02-05T02:02:34.066Z,-1.50
2019-02-05T02:05:34.895Z,-1.50
2019-02-05T02:08:35.766Z,-1.50
2019-02-05T02:11:36.435Z,-1.50
2019-02-05T02:14:36.806Z,-1.70
2019-02-05T02:17:37.413Z,-1.80
2019-02-05T02:20:37.844Z,-1.80
2019-02-05T02:23:38.310Z,-2.00
2019-02-05T02:26:38.703Z,-2.00
2019-02-05T02:29:39.254Z,-2.00
2019-02-05T02:32:40.733Z,-2.10
2019-02-05T02:35:41.311Z,-2.10
2019-02-05T02:38:42.560Z,-2.10
2019-02-05T02:41:43.021Z,-2.10
2019-02-05T02:44:43.828Z,-2.20
2019-02-05T02:47:44.184Z,-2.50
2019-02-05T02:50:44.722Z,-2.40
2019-02-05T02:53:45.085Z,-2.40
2019-02-05T02:56:45.991Z,-2.40
2019-02-05T02:59:46.801Z,-2.50
2019-02-05T03:02:47.489Z,-2.50
2019-02-05T03:05:48.142Z,-2.60
2019-02-05T03:08:48.722Z,-2.50
2019-02-05T03:11:49.706Z,-2.50
2019-02-05T03:14:50.816Z,-2.40
2019-02-05T03:17:51.715Z,-2.50
2019-02-05T03:20:52.592Z,-2.60
2019-02-05T03:23:53.751Z,-2.60
2019-02-05T03:26:55.347Z,-2.70
2019-02-05T03:29:55.774Z,-2.80
2019-02-05T03:32:56.237Z,-3.00
2019-02-05T03:35:56.975Z,-3.00
2019-02-05T03:38:57.575Z,-3.10
2019-02-05T03:41:58.910Z,-3.00
2019-02-05T03:45:00.341Z,-2.90
2019-02-05T03:48:01.603Z,-2.90
2019-02-05T03:51:02.507Z,-3.10
2019-02-05T03:54:02.875Z,-3.10
2019-02-05T03:57:04.249Z,-3.20
2019-02-05T04:00:05.472Z,-3.30
2019-02-05T04:03:06.614Z,-3.30
2019-02-05T04:06:07.118Z,-3.70
2019-02-05T04:09:07.782Z,-3.70
2019-02-05T04:12:08.054Z,-3.50
2019-02-05T04:15:08.799Z,-3.50
2019-02-05T04:18:09.361Z,-3.30
2019-02-05T04:21:17.787Z,-3.40
2019-02-05T04:24:18.174Z,-3.30
2019-02-05T04:27:18.459Z,-3.60
2019-02-05T04:30:19.192Z,-3.50
2019-02-05T04:33:19.771Z,-3.60
2019-02-05T04:36:20.085Z,-3.50
2019-02-05T04:39:20.615Z,-3.70
2019-02-05T04:42:21.200Z,-3.70
2019-02-05T04:45:33.377Z,-3.80
2019-02-05T04:48:24.364Z,-3.90
2019-02-05T04:51:25.255Z,-3.80
2019-02-05T04:54:26.303Z,-3.80
2019-02-05T04:57:27.127Z,-3.80
2019-02-05T05:00:27.510Z,-3.90
2019-02-05T05:03:28.013Z,-3.90
2019-02-05T05:06:28.606Z,-3.90
2019-02-05T05:09:29.241Z,-3.90
2019-02-05T05:12:30.185Z,-3.90
2019-02-05T05:15:30.669Z,-4.00
2019-02-05T05:18:31.761Z,-3.90
2019-02-05T05:21:32.192Z,-3.90
2019-02-05T05:24:32.599Z,-4.00
2019-02-05T05:27:33.664Z,-4.00
2019-02-05T05:30:35.010Z,-4.10
2019-02-05T05:33:42.982Z,-4.10
2019-02-05T05:36:50.450Z,-4.20
2019-02-05T05:39:50.902Z,-4.20
2019-02-05T05:42:51.752Z,-4.30
2019-02-05T05:45:52.339Z,-4.30
2019-02-05T05:48:52.783Z,-4.40
2019-02-05T05:51:53.359Z,-4.30
2019-02-05T05:54:53.867Z,-4.40
2019-02-05T05:57:54.508Z,-4.40
2019-02-05T06:00:55.014Z,-4.40
2019-02-05T06:03:55.636Z,-4.40
2019-02-05T06:06:56.555Z,-4.70
2019-02-05T06:09:57.172Z,-4.70
2019-02-05T06:12:58.784Z,-4.50
2019-02-05T06:15:59.229Z,-4.60
2019-02-05T06:19:00.053Z,-4.60
2019-02-05T06:22:00.531Z,-4.60
2019-02-05T06:25:02.041Z,-4.70
2019-02-05T06:28:03.533Z,-4.80
2019-02-05T06:31:04.188Z,-4.80
2019-02-05T06:34:04.632Z,-4.80
2019-02-05T06:37:05.123Z,-4.80
2019-02-05T06:40:05.712Z,-4.70
2019-02-05T06:43:06.274Z,-4.70
2019-02-05T06:46:06.715Z,-4.80
2019-02-05T06:49:07.481Z,-4.80
2019-02-05T06:52:08.305Z,-4.80
2019-02-05T06:55:09.239Z,-4.80
2019-02-05T06:58:10.618Z,-4.80
2019-02-05T07:01:10.913Z,-4.80
2019-02-05T07:04:11.238Z,-4.80
2019-02-05T07:07:12.527Z,-4.80
2019-02-05T07:10:13.707Z,-4.80
2019-02-05T07:13:14.878Z,-4.80
2019-02-05T07:16:15.956Z,-4.80
2019-02-05T07:19:16.465Z,-4.50
2019-02-05T07:22:17.197Z,-4.00
2019-02-05T07:25:18.139Z,-3.70
2019-02-05T07:28:18.462Z,-3.30
2019-02-05T07:31:19.205Z,-3.00
2019-02-05T07:34:21.287Z,-2.80
2019-02-05T07:37:21.976Z,-2.50
2019-02-05T07:40:23.244Z,-2.20
2019-02-05T07:43:23.757Z,-2.00
2019-02-05T07:46:24.454Z,-1.60
2019-02-05T07:49:24.828Z,-1.20
2019-02-05T07:52:26.376Z,-1.10
2019-02-05T07:55:26.899Z,-0.60
2019-02-05T07:58:27.593Z,-0.20
2019-02-05T08:01:27.953Z,0.10
2019-02-05T08:04:28.472Z,0.30
2019-02-05T08:07:29.369Z,0.70
2019-02-05T08:10:30.185Z,0.80
2019-02-05T08:13:30.604Z,1.00
2019-02-05T08:16:33.878Z,0.90
2019-02-05T08:19:33.312Z,0.20
2019-02-05T08:22:34.233Z,1.60
2019-02-05T08:25:34.870Z,0.40
2019-02-05T08:28:41.070Z,0.90
2019-02-05T08:31:38.908Z,2.00
2019-02-05T08:34:39.663Z,1.50
2019-02-05T08:37:41.030Z,1.60
2019-02-05T08:40:42.163Z,2.80
2019-02-05T08:43:42.913Z,3.00
2019-02-05T08:46:43.713Z,2.90
2019-02-05T08:49:44.313Z,3.60
2019-02-05T08:52:45.384Z,4.50
2019-02-05T08:55:46.260Z,4.80
2019-02-05T08:58:47.550Z,5.40
2019-02-05T09:01:47.954Z,5.70
2019-02-05T09:04:48.620Z,6.20
2019-02-05T09:07:48.948Z,6.40
2019-02-05T09:10:49.553Z,6.60
2019-02-05T09:13:49.969Z,7.20
2019-02-05T09:16:50.780Z,7.40
2019-02-05T09:19:51.490Z,7.20
2019-02-05T09:22:52.028Z,7.50
2019-02-05T09:25:53.144Z,8.70
2019-02-05T09:28:53.533Z,7.60
2019-02-05T09:31:53.984Z,7.60
2019-02-05T09:34:54.474Z,8.00
2019-02-05T09:37:57.563Z,7.10
2019-02-05T09:40:57.215Z,8.80
2019-02-05T09:43:57.727Z,9.20
2019-02-05T09:46:58.329Z,7.60
2019-02-05T09:49:59.010Z,9.40
2019-02-05T09:52:59.504Z,8.90
2019-02-05T09:56:01.233Z,9.60
2019-02-05T09:59:02.812Z,9.60
2019-02-05T10:02:04.737Z,8.60
2019-02-05T10:04:53.991Z,8.80
2019-02-05T10:08:02.567Z,10.00
2019-02-05T10:11:04.305Z,11.20
2019-02-05T10:14:06.189Z,10.60
2019-02-05T10:17:08.049Z,11.60
2019-02-05T10:20:09.856Z,13.00
2019-02-05T10:23:11.193Z,13.90
2019-02-05T10:26:12.434Z,14.60
2019-02-05T10:29:13.478Z,14.50
2019-02-05T10:32:14.721Z,12.80
2019-02-05T10:35:16.469Z,12.60
2019-02-05T10:38:18.710Z,13.70
2019-02-05T10:41:20.530Z,14.30
2019-02-05T10:44:22.297Z,15.50
2019-02-05T10:47:23.926Z,15.80
2019-02-05T10:50:25.652Z,15.80
2019-02-05T10:53:27.070Z,15.40
2019-02-05T10:56:28.470Z,15.30
2019-02-05T10:59:29.968Z,16.30
2019-02-05T11:02:31.793Z,16.80
2019-02-05T11:05:33.394Z,16.80
2019-02-05T11:08:35.127Z,16.20
2019-02-05T11:11:36.474Z,15.30
2019-02-05T11:14:38.331Z,15.90
2019-02-05T11:17:39.880Z,17.70
2019-02-05T11:20:41.594Z,17.40
2019-02-05T11:23:43.182Z,18.00
2019-02-05T11:26:44.961Z,18.50
2019-02-05T11:29:46.662Z,19.00
2019-02-05T11:32:48.469Z,18.80
2019-02-05T11:35:50.281Z,17.80
2019-02-05T11:38:52.702Z,17.40
2019-02-05T11:41:54.123Z,18.00
2019-02-05T11:44:55.407Z,18.60
2019-02-05T11:47:56.436Z,19.80
2019-02-05T11:50:57.984Z,20.00
2019-02-05T11:53:59.650Z,20.00
2019-02-05T11:57:00.966Z,18.10
2019-02-05T12:00:02.012Z,16.00
2019-02-05T12:03:03.772Z,16.00
2019-02-05T12:06:05.534Z,18.30
2019-02-05T12:09:07.165Z,18.50
2019-02-05T12:12:08.906Z,19.10
2019-02-05T12:15:10.797Z,20.20
2019-02-05T12:18:12.289Z,20.30
2019-02-05T12:21:13.835Z,20.70
2019-02-05T12:24:15.612Z,20.50
2019-02-05T12:27:16.467Z,20.70
2019-02-05T12:30:17.890Z,21.50
2019-02-05T12:33:19.193Z,21.60
2019-02-05T12:36:28.092Z,21.20
2019-02-05T12:39:36.262Z,21.10
2019-02-05T12:42:37.859Z,20.00
2019-02-05T12:45:39.613Z,20.50
2019-02-05T12:48:41.486Z,20.70
2019-02-05T12:51:42.925Z,20.30
2019-02-05T12:54:44.245Z,20.00
2019-02-05T12:57:45.649Z,20.60
2019-02-05T13:00:56.640Z,20.40
2019-02-05T13:03:50.913Z,20.60
2019-02-05T13:06:52.389Z,19.60
2019-02-05T13:09:53.432Z,20.60
2019-02-05T13:12:55.238Z,20.40
2019-02-05T13:15:56.869Z,20.10
2019-02-05T13:18:58.646Z,20.30
2019-02-05T13:22:00.249Z,19.50
2019-02-05T13:25:01.487Z,20.40
2019-02-05T13:28:03.229Z,18.90
2019-02-05T13:31:08.184Z,18.50
2019-02-05T13:34:07.213Z,20.10
2019-02-05T13:37:08.621Z,19.00
2019-02-05T13:40:10.164Z,18.60
2019-02-05T13:43:11.737Z,19.10
2019-02-05T13:46:13.459Z,19.10
2019-02-05T13:49:18.497Z,17.50
2019-02-05T13:52:20.298Z,20.40
2019-02-05T13:55:22.071Z,21.20
2019-02-05T13:58:23.734Z,20.20
2019-02-05T14:01:25.460Z,21.00
2019-02-05T14:04:26.862Z,21.40
2019-02-05T14:07:28.100Z,19.70
2019-02-05T14:10:29.529Z,19.70
2019-02-05T14:13:30.713Z,19.60
2019-02-05T14:16:32.219Z,21.10
2019-02-05T14:19:33.490Z,18.60
2019-02-05T14:22:35.130Z,20.20
2019-02-05T14:25:36.531Z,19.80
2019-02-05T14:28:37.802Z,19.60
2019-02-05T14:31:39.490Z,20.30
2019-02-05T14:34:40.719Z,20.60
2019-02-05T14:37:41.960Z,17.20
2019-02-05T14:40:43.333Z,14.40
2019-02-05T14:43:44.873Z,15.60
2019-02-05T14:46:46.353Z,16.70
2019-02-05T14:49:47.354Z,17.50
2019-02-05T14:52:49.239Z,18.40
2019-02-05T14:55:50.377Z,18.60
2019-02-05T14:58:51.963Z,18.50
2019-02-05T15:01:53.525Z,19.40
2019-02-05T15:04:54.716Z,19.40
2019-02-05T15:07:56.356Z,18.40
2019-02-05T15:10:57.939Z,17.60
2019-02-05T15:13:59.441Z,15.90
2019-02-05T15:17:00.767Z,14.60
2019-02-05T15:20:02.381Z,14.00
2019-02-05T15:23:03.829Z,13.60
2019-02-05T15:26:05.169Z,13.50
2019-02-05T15:29:07.044Z,12.90
2019-02-05T15:32:08.110Z,12.40
2019-02-05T15:35:09.069Z,12.80
2019-02-05T15:38:09.903Z,12.60
2019-02-05T15:41:11.443Z,11.80
2019-02-05T15:44:12.712Z,11.70
2019-02-05T15:47:13.386Z,11.40
2019-02-05T15:50:15.035Z,11.20
2019-02-05T15:53:16.053Z,11.10
2019-02-05T15:56:16.752Z,10.70
2019-02-05T15:59:17.644Z,9.70
2019-02-05T16:02:18.298Z,9.20
2019-02-05T16:05:18.599Z,9.00
2019-02-05T16:08:19.249Z,8.40
2019-02-05T16:11:19.946Z,8.00
2019-02-05T16:14:20.364Z,7.70
2019-02-05T16:17:21.265Z,7.40
2019-02-05T16:20:22.999Z,7.50
2019-02-05T16:23:23.367Z,7.30
2019-02-05T16:26:24.672Z,7.20
2019-02-05T16:29:25.251Z,7.10
2019-02-05T16:32:26.380Z,6.90
2019-02-05T16:35:26.921Z,6.70
2019-02-05T16:38:27.528Z,6.50
2019-02-05T16:41:27.870Z,6.20
2019-02-05T16:44:28.193Z,6.10
2019-02-05T16:47:28.713Z,5.50
2019-02-05T16:50:29.175Z,5.70
2019-02-05T16:53:30.118Z,5.70
2019-02-05T16:56:30.464Z,4.90
2019-02-05T16:59:31.901Z,5.00
2019-02-05T17:02:28.695Z,5.20
2019-02-05T17:05:30.865Z,5.20
2019-02-05T17:08:31.338Z,5.10
2019-02-05T17:11:34.318Z,5.10
2019-02-05T17:14:42.257Z,5.00
2019-02-05T17:17:50.250Z,4.80
2019-02-05T17:20:50.523Z,4.70
2019-02-05T17:23:50.995Z,4.60
2019-02-05T17:26:51.673Z,4.30
2019-02-05T17:29:52.062Z,4.10
2019-02-05T17:32:52.672Z,4.20
2019-02-05T17:35:53.734Z,4.20
2019-02-05T17:38:54.049Z,3.30
2019-02-05T17:41:54.422Z,3.50
2019-02-05T17:44:54.966Z,3.20
2019-02-05T17:47:55.458Z,2.90
2019-02-05T17:50:56.123Z,2.70
2019-02-05T17:53:56.913Z,2.80
2019-02-05T17:56:57.657Z,2.90
2019-02-05T17:59:58.338Z,2.60
2019-02-05T18:02:59.062Z,2.30
2019-02-05T18:05:59.618Z,2.40
2019-02-05T18:09:00.059Z,2.20
2019-02-05T18:12:00.598Z,2.00
2019-02-05T18:15:01.342Z,2.00
2019-02-05T18:18:02.484Z,2.50
2019-02-05T18:21:03.241Z,2.70
2019-02-05T18:24:03.657Z,2.80
2019-02-05T18:27:04.227Z,2.70
2019-02-05T18:30:05.006Z,2.70
2019-02-05T18:33:06.044Z,2.60
2019-02-05T18:36:07.010Z,2.40
2019-02-05T18:39:07.847Z,2.50
2019-02-05T18:42:08.405Z,2.20
2019-02-05T18:45:08.766Z,2.20
2019-02-05T18:48:09.896Z,2.10
2019-02-05T18:51:10.780Z,2.00
2019-02-05T18:54:11.170Z,1.90
2019-02-05T18:57:11.473Z,2.00
2019-02-05T19:00:12.905Z,1.90
2019-02-05T19:03:16.150Z,1.80
2019-02-05T19:06:15.621Z,1.70
2019-02-05T19:09:16.968Z,1.60
2019-02-05T19:12:18.232Z,1.60
2019-02-05T19:15:18.767Z,1.40
2019-02-05T19:18:19.499Z,1.40
2019-02-05T19:21:20.134Z,1.50
2019-02-05T19:24:22.583Z,1.50
2019-02-05T19:27:23.351Z,1.40
2019-02-05T19:30:26.784Z,1.40
2019-02-05T19:33:27.666Z,1.30
2019-02-05T19:36:28.050Z,1.30
2019-02-05T19:39:28.401Z,1.10
2019-02-05T19:42:28.918Z,0.80
2019-02-05T19:45:48.622Z,0.80
2019-02-05T19:48:51.340Z,0.80
2019-02-05T19:51:52.517Z,0.80
2019-02-05T19:54:53.832Z,0.70
2019-02-05T19:57:55.312Z,0.70
2019-02-05T20:00:55.949Z,0.70
2019-02-05T20:03:56.608Z,0.40
2019-02-05T20:06:57.475Z,0.50
2019-02-05T20:09:58.090Z,0.50
2019-02-05T20:12:59.401Z,0.50
2019-02-05T20:15:59.836Z,0.20
2019-02-05T20:19:00.348Z,0.10
2019-02-05T20:22:00.916Z,0.10
2019-02-05T20:25:01.176Z,0.20
2019-02-05T20:28:09.346Z,0.20
2019-02-05T20:31:17.311Z,0.00
2019-02-05T20:34:17.813Z,0.00
2019-02-05T20:37:18.410Z,-0.10
2019-02-05T20:40:18.878Z,-0.10
2019-02-05T20:43:19.804Z,-0.20
2019-02-05T20:46:20.599Z,-0.10
2019-02-05T20:49:21.758Z,-0.20
2019-02-05T20:52:23.481Z,-0.20
2019-02-05T20:55:24.686Z,-0.30
2019-02-05T20:58:25.254Z,-0.30
2019-02-05T21:01:25.885Z,-0.20
2019-02-05T21:04:26.406Z,-0.20
2019-02-05T21:07:26.856Z,-0.30
2019-02-05T21:10:27.743Z,-0.40
2019-02-05T21:13:28.585Z,-0.50
2019-02-05T21:16:29.402Z,-0.60
2019-02-05T21:19:29.731Z,-0.60
2019-02-05T21:22:31.128Z,-0.70
2019-02-05T21:25:32.771Z,-0.70
2019-02-05T21:28:33.939Z,-0.70
2019-02-05T21:31:35.431Z,-0.80
2019-02-05T21:34:36.678Z,-0.80
2019-02-05T21:37:37.035Z,-0.90
2019-02-05T21:40:37.696Z,-0.90
2019-02-05T21:43:38.425Z,-0.90
2019-02-05T21:46:39.081Z,-1.00
2019-02-05T21:49:39.842Z,-1.00
2019-02-05T21:52:41.043Z,-1.00
2019-02-05T21:55:41.412Z,-1.20
2019-02-05T21:58:42.629Z,-1.10
2019-02-05T22:01:43.080Z,-1.20
2019-02-05T22:04:44.313Z,-1.20
2019-02-05T22:07:44.966Z,-1.20
2019-02-05T22:10:45.593Z,-1.30
2019-02-05T22:13:47.069Z,-1.30
2019-02-05T22:16:47.529Z,-1.30
2019-02-05T22:19:48.997Z,-1.30
2019-02-05T22:22:49.956Z,-1.60
2019-02-05T22:25:38.958Z,-1.80
2019-02-05T22:28:46.882Z,-1.80
2019-02-05T22:31:47.994Z,-1.60
2019-02-05T22:34:49.145Z,-1.70
2019-02-05T22:37:49.942Z,-1.60
2019-02-05T22:40:51.199Z,-1.60
2019-02-05T22:43:39.925Z,-1.70
2019-02-05T22:46:47.888Z,-1.70
2019-02-05T22:49:48.645Z,-1.90
2019-02-05T22:52:49.218Z,-1.90
2019-02-05T22:55:50.391Z,-1.80
2019-02-05T22:58:51.250Z,-2.00
2019-02-05T23:01:51.920Z,-1.90
2019-02-05T23:08:15.078Z,-2.00
2019-02-05T23:11:15.773Z,-2.20
2019-02-05T23:14:16.512Z,-2.00
2019-02-05T23:17:17.237Z,-2.00
2019-02-05T23:20:17.847Z,-2.10
2019-02-05T23:23:19.254Z,-2.20
2019-02-05T23:26:20.401Z,-2.20
2019-02-05T23:29:20.761Z,-2.20
2019-02-05T23:32:21.336Z,-2.30
2019-02-05T23:35:22.583Z,-2.30
2019-02-05T23:38:29.438Z,-2.30
2019-02-05T23:41:24.966Z,-2.40
2019-02-05T23:44:26.173Z,-2.60
2019-02-05T23:47:26.954Z,-2.60
2019-02-05T23:50:27.693Z,-2.50
2019-02-05T23:53:28.181Z,-2.50
2019-02-05T23:56:28.648Z,-2.60
2019-02-05T23:59:29.082Z,-2.60
